createdAt,value
2017-01-16T00:00:31.466Z,0
2017-01-16T00:01:53.098Z,0
2017-01-16T00:03:15.952Z,0
2017-01-16T00:04:37.322Z,0
2017-01-16T00:05:59.256Z,0
2017-01-16T00:07:20.898Z,0
2017-01-16T00:08:43.332Z,0
2017-01-16T00:10:05.479Z,0
2017-01-16T00:11:27.533Z,0
2017-01-16T00:12:49.590Z,0
2017-01-16T00:14:11.620Z,0
2017-01-16T00:15:33.656Z,0
2017-01-16T00:16:55.338Z,0
2017-01-16T00:18:17.431Z,0
2017-01-16T00:19:39.533Z,0
2017-01-16T00:21:01.588Z,0
2017-01-16T00:22:23.290Z,0
2017-01-16T00:23:45.353Z,0
2017-01-16T00:25:07.383Z,0
2017-01-16T00:26:29.054Z,0
2017-01-16T00:27:51.539Z,0
2017-01-16T00:29:13.974Z,0
2017-01-16T00:30:35.643Z,0
2017-01-16T00:31:57.754Z,0
2017-01-16T00:33:20.196Z,0
2017-01-16T00:34:43.248Z,0
2017-01-16T00:36:05.707Z,0
2017-01-16T00:37:28.307Z,0
2017-01-16T00:38:50.761Z,0
2017-01-16T00:40:12.123Z,0
2017-01-16T00:41:33.367Z,0
2017-01-16T00:42:55.398Z,0
2017-01-16T00:44:18.247Z,0
2017-01-16T00:45:40.825Z,0
2017-01-16T00:47:02.566Z,0
2017-01-16T00:48:24.701Z,0
2017-01-16T00:49:47.143Z,0
2017-01-16T00:51:09.347Z,0
2017-01-16T00:52:30.998Z,0
2017-01-16T00:53:51.903Z,0
2017-01-16T00:55:14.425Z,0
2017-01-16T00:56:36.145Z,0
2017-01-16T00:57:57.787Z,0
2017-01-16T00:59:19.810Z,0
2017-01-16T01:00:41.192Z,0
2017-01-16T01:02:03.236Z,0
2017-01-16T01:03:24.905Z,0
2017-01-16T01:04:47.339Z,0
2017-01-16T01:06:09.378Z,0
2017-01-16T01:07:31.008Z,0
2017-01-16T01:08:52.243Z,0
2017-01-16T01:10:14.664Z,0
2017-01-16T01:11:37.218Z,0
2017-01-16T01:12:59.260Z,0
2017-01-16T01:14:20.907Z,0
2017-01-16T01:15:43.076Z,0
2017-01-16T01:17:05.957Z,0
2017-01-16T01:18:27.594Z,0
2017-01-16T01:19:49.240Z,0
2017-01-16T01:21:10.909Z,0
2017-01-16T01:22:32.569Z,0
2017-01-16T01:23:54.701Z,0
2017-01-16T01:25:15.986Z,0
2017-01-16T01:26:38.826Z,0
2017-01-16T01:28:00.951Z,0
2017-01-16T01:29:23.040Z,0
2017-01-16T01:30:45.134Z,0
2017-01-16T01:32:06.830Z,0
2017-01-16T01:33:28.464Z,0
2017-01-16T01:34:50.515Z,0
2017-01-16T01:36:12.981Z,0
2017-01-16T01:37:35.036Z,0
2017-01-16T01:38:57.535Z,0
2017-01-16T01:40:19.587Z,0
2017-01-16T01:41:42.013Z,0
2017-01-16T01:43:04.186Z,0
2017-01-16T01:44:25.843Z,0
2017-01-16T01:45:48.395Z,0
2017-01-16T01:47:10.863Z,0
2017-01-16T01:48:33.284Z,0
2017-01-16T01:49:55.332Z,0
2017-01-16T01:51:17.415Z,0
2017-01-16T01:52:38.664Z,0
2017-01-16T01:54:01.623Z,0
2017-01-16T01:55:24.069Z,0
2017-01-16T01:56:46.591Z,0
2017-01-16T01:58:08.664Z,0
2017-01-16T01:59:30.298Z,0
2017-01-16T02:00:51.930Z,0
2017-01-16T02:02:13.682Z,0
2017-01-16T02:03:36.120Z,0
2017-01-16T02:04:57.763Z,0
2017-01-16T02:06:20.234Z,0
2017-01-16T02:07:42.718Z,0
2017-01-16T02:09:04.377Z,0
2017-01-16T02:10:26.899Z,0
2017-01-16T02:11:48.584Z,0
2017-01-16T02:13:10.244Z,0
2017-01-16T02:14:31.906Z,0
2017-01-16T02:15:53.156Z,0
2017-01-16T02:17:15.249Z,0
2017-01-16T02:18:37.294Z,0
2017-01-16T02:19:59.314Z,0
2017-01-16T02:21:21.746Z,0
2017-01-16T02:22:43.524Z,0
2017-01-16T02:24:05.969Z,0
2017-01-16T02:25:28.101Z,0
2017-01-16T02:26:50.185Z,0
2017-01-16T02:28:12.804Z,0
2017-01-16T02:29:35.271Z,0
2017-01-16T02:30:56.504Z,0
2017-01-16T02:32:19.409Z,0
2017-01-16T02:33:41.878Z,0
2017-01-16T02:35:03.531Z,0
2017-01-16T02:36:26.113Z,0
2017-01-16T02:37:48.135Z,0
2017-01-16T02:39:10.579Z,0
2017-01-16T02:40:32.345Z,0
2017-01-16T02:41:55.054Z,0
2017-01-16T02:43:17.630Z,0
2017-01-16T02:44:40.466Z,0
2017-01-16T02:46:02.904Z,0
2017-01-16T02:47:25.750Z,0
2017-01-16T02:48:47.815Z,0
2017-01-16T02:50:10.256Z,0
2017-01-16T02:51:32.336Z,0
2017-01-16T02:52:55.163Z,0
2017-01-16T02:54:16.877Z,0
2017-01-16T02:55:38.919Z,0
2017-01-16T02:57:01.085Z,0
2017-01-16T02:58:23.125Z,0
2017-01-16T02:59:45.682Z,0
2017-01-16T03:01:08.187Z,0
2017-01-16T03:02:31.043Z,0
2017-01-16T03:03:53.514Z,0
2017-01-16T03:05:15.553Z,0
2017-01-16T03:06:37.179Z,0
2017-01-16T03:07:59.621Z,0
2017-01-16T03:09:21.246Z,0
2017-01-16T03:10:42.480Z,0
2017-01-16T03:12:04.139Z,0
2017-01-16T03:13:26.822Z,0
2017-01-16T03:14:49.745Z,0
2017-01-16T03:16:11.803Z,0
2017-01-16T03:17:33.961Z,0
2017-01-16T03:18:56.096Z,0
2017-01-16T03:20:18.296Z,0
2017-01-16T03:21:40.714Z,0
2017-01-16T03:23:01.965Z,0
2017-01-16T03:24:24.413Z,0
2017-01-16T03:25:45.770Z,0
2017-01-16T03:27:07.415Z,0
2017-01-16T03:28:29.451Z,0
2017-01-16T03:29:51.589Z,0
2017-01-16T03:31:13.679Z,0
2017-01-16T03:32:35.333Z,0
2017-01-16T03:33:57.417Z,0
2017-01-16T03:35:19.957Z,0
2017-01-16T03:36:42.023Z,0
2017-01-16T03:38:04.440Z,0
2017-01-16T03:39:26.998Z,0
2017-01-16T03:40:48.722Z,0
2017-01-16T03:42:10.362Z,0
2017-01-16T03:43:31.610Z,0
2017-01-16T03:44:53.254Z,0
2017-01-16T03:46:15.716Z,0
2017-01-16T03:47:37.446Z,0
2017-01-16T03:48:59.876Z,0
2017-01-16T03:50:21.931Z,0
2017-01-16T03:51:44.369Z,0
2017-01-16T03:53:06.132Z,0
2017-01-16T03:54:28.153Z,0
2017-01-16T03:55:50.585Z,0
2017-01-16T03:57:13.071Z,0
2017-01-16T03:58:35.525Z,0
2017-01-16T03:59:57.966Z,0
2017-01-16T04:01:20.453Z,0
2017-01-16T04:02:42.959Z,0
2017-01-16T04:04:05.913Z,0
2017-01-16T04:05:27.935Z,0
2017-01-16T04:06:50.084Z,0
2017-01-16T04:08:12.199Z,0
2017-01-16T04:09:33.899Z,0
2017-01-16T04:10:56.470Z,0
2017-01-16T04:12:18.903Z,0
2017-01-16T04:13:41.053Z,0
2017-01-16T04:15:03.105Z,0
2017-01-16T04:16:24.955Z,0
2017-01-16T04:17:46.208Z,0
2017-01-16T04:19:07.837Z,0
2017-01-16T04:20:29.883Z,0
2017-01-16T04:21:51.141Z,0
2017-01-16T04:23:13.235Z,0
2017-01-16T04:24:35.838Z,0
2017-01-16T04:25:58.274Z,0
2017-01-16T04:27:20.344Z,0
2017-01-16T04:28:42.393Z,0
2017-01-16T04:30:04.824Z,0
2017-01-16T04:31:27.479Z,0
2017-01-16T04:32:48.724Z,0
2017-01-16T04:34:10.374Z,0
2017-01-16T04:35:32.062Z,0
2017-01-16T04:36:53.371Z,0
2017-01-16T04:38:15.545Z,0
2017-01-16T04:39:37.191Z,0
2017-01-16T04:40:59.754Z,0
2017-01-16T04:42:21.855Z,0
2017-01-16T04:43:43.969Z,0
2017-01-16T04:45:06.067Z,0
2017-01-16T04:46:28.524Z,0
2017-01-16T04:47:50.581Z,0
2017-01-16T04:49:12.685Z,0
2017-01-16T04:50:34.332Z,0
2017-01-16T04:51:56.113Z,0
2017-01-16T04:53:18.954Z,0
2017-01-16T04:54:40.683Z,0
2017-01-16T04:56:02.742Z,0
2017-01-16T04:57:25.235Z,0
2017-01-16T04:58:48.063Z,0
2017-01-16T05:00:10.657Z,0
2017-01-16T05:01:32.331Z,0
2017-01-16T05:02:54.883Z,0
2017-01-16T05:04:16.523Z,0
2017-01-16T05:05:37.914Z,0
2017-01-16T05:07:00.732Z,0
2017-01-16T05:08:23.433Z,0
2017-01-16T05:09:45.265Z,0
2017-01-16T05:11:07.297Z,0
2017-01-16T05:12:29.727Z,0
2017-01-16T05:13:52.172Z,0
2017-01-16T05:15:14.210Z,0
2017-01-16T05:16:36.328Z,0
2017-01-16T05:17:58.375Z,0
2017-01-16T05:19:20.656Z,0
2017-01-16T05:20:41.910Z,0
2017-01-16T05:22:03.951Z,0
2017-01-16T05:23:26.006Z,0
2017-01-16T05:24:47.652Z,0
2017-01-16T05:26:10.182Z,0
2017-01-16T05:27:32.630Z,0
2017-01-16T05:28:55.147Z,0
2017-01-16T05:30:17.583Z,0
2017-01-16T05:31:40.033Z,0
2017-01-16T05:33:02.199Z,0
2017-01-16T05:34:25.120Z,0
2017-01-16T05:35:47.958Z,0
2017-01-16T05:37:10.375Z,0
2017-01-16T05:38:32.416Z,0
2017-01-16T05:39:54.194Z,0
2017-01-16T05:41:17.018Z,0
2017-01-16T05:42:39.651Z,0
2017-01-16T05:44:02.518Z,0
2017-01-16T05:45:25.161Z,0
2017-01-16T05:46:47.992Z,0
2017-01-16T05:48:10.169Z,0
2017-01-16T05:49:31.870Z,0
2017-01-16T05:50:53.920Z,0
2017-01-16T05:52:15.957Z,0
2017-01-16T05:53:38.070Z,0
2017-01-16T05:55:00.902Z,0
2017-01-16T05:56:23.445Z,0
2017-01-16T05:57:46.255Z,0
2017-01-16T05:59:09.079Z,0
2017-01-16T06:00:31.565Z,0
2017-01-16T06:01:53.577Z,0
2017-01-16T06:03:47.598Z,0
2017-01-16T06:05:09.647Z,0
2017-01-16T06:06:31.734Z,0
2017-01-16T06:07:54.194Z,0
2017-01-16T06:09:15.872Z,0
2017-01-16T06:10:38.381Z,0
2017-01-16T06:12:00.477Z,0
2017-01-16T06:13:22.557Z,0
2017-01-16T06:14:45.410Z,0
2017-01-16T06:16:07.893Z,0
2017-01-16T06:17:30.334Z,0
2017-01-16T06:18:52.462Z,0
2017-01-16T06:20:13.747Z,0
2017-01-16T06:21:36.191Z,0
2017-01-16T06:22:59.035Z,0
2017-01-16T06:24:21.109Z,0
2017-01-16T06:25:43.247Z,0
2017-01-16T06:27:05.744Z,0
2017-01-16T06:28:27.406Z,0
2017-01-16T06:29:49.434Z,0
2017-01-16T06:31:11.907Z,0
2017-01-16T06:32:33.161Z,0
2017-01-16T06:33:56.026Z,0
2017-01-16T06:35:18.538Z,0
2017-01-16T06:36:40.585Z,0
2017-01-16T06:38:03.074Z,0
2017-01-16T06:39:25.925Z,0
2017-01-16T06:40:47.553Z,0
2017-01-16T06:42:09.633Z,12
2017-01-16T06:43:31.708Z,0
2017-01-16T06:44:53.765Z,0
2017-01-16T06:46:16.613Z,0
2017-01-16T06:47:39.068Z,4
2017-01-16T06:49:01.589Z,0
2017-01-16T06:50:24.049Z,0
2017-01-16T06:51:47.026Z,4
2017-01-16T06:53:41.387Z,4
2017-01-16T06:55:03.031Z,4
2017-01-16T06:56:25.080Z,4
2017-01-16T06:57:47.542Z,8
2017-01-16T06:59:09.581Z,12
2017-01-16T07:00:31.614Z,12
2017-01-16T07:01:52.870Z,12
2017-01-16T07:03:15.005Z,16
2017-01-16T07:04:37.544Z,24
2017-01-16T07:05:58.864Z,28
2017-01-16T07:07:20.109Z,32
2017-01-16T07:08:42.720Z,40
2017-01-16T07:10:05.151Z,44
2017-01-16T07:11:27.319Z,56
2017-01-16T07:12:49.779Z,68
2017-01-16T07:14:12.430Z,80
2017-01-16T07:16:07.044Z,100
2017-01-16T07:17:29.217Z,116
2017-01-16T07:18:51.827Z,136
2017-01-16T07:20:13.904Z,152
2017-01-16T07:21:36.774Z,176
2017-01-16T07:23:00.780Z,204
2017-01-16T07:24:26.046Z,232
2017-01-16T07:25:49.219Z,264
2017-01-16T07:27:11.270Z,296
2017-01-16T07:28:32.166Z,332
2017-01-16T07:29:53.799Z,368
2017-01-16T07:31:15.437Z,408
2017-01-16T07:32:37.890Z,452
2017-01-16T07:33:59.939Z,492
2017-01-16T07:35:22.014Z,536
2017-01-16T07:36:44.204Z,588
2017-01-16T07:38:06.662Z,636
2017-01-16T07:39:29.348Z,684
2017-01-16T07:40:51.787Z,740
2017-01-16T07:42:13.476Z,796
2017-01-16T07:43:36.001Z,852
2017-01-16T07:44:58.458Z,908
2017-01-16T07:46:21.098Z,968
2017-01-16T07:47:43.188Z,1028
2017-01-16T07:49:05.633Z,1088
2017-01-16T07:50:28.481Z,1148
2017-01-16T07:51:51.397Z,1212
2017-01-16T07:53:13.425Z,1268
2017-01-16T07:54:35.624Z,1328
2017-01-16T07:55:57.317Z,1392
2017-01-16T07:57:20.170Z,1452
2017-01-16T07:58:42.739Z,1512
2017-01-16T08:00:05.204Z,1576
2017-01-16T08:01:27.855Z,1636
2017-01-16T08:02:49.935Z,1692
2017-01-16T08:04:11.952Z,1752
2017-01-16T08:05:35.192Z,1808
2017-01-16T08:06:57.241Z,1868
2017-01-16T08:08:19.404Z,1920
2017-01-16T08:09:42.251Z,1976
2017-01-16T08:11:03.508Z,2032
2017-01-16T08:12:25.949Z,2088
2017-01-16T08:13:48.434Z,2144
2017-01-16T08:15:10.877Z,2196
2017-01-16T08:16:32.967Z,2248
2017-01-16T08:17:55.029Z,2296
2017-01-16T08:19:17.877Z,2344
2017-01-16T08:20:39.951Z,2396
2017-01-16T08:22:02.409Z,2444
2017-01-16T08:23:24.921Z,2492
2017-01-16T08:24:47.017Z,2540
2017-01-16T08:26:09.072Z,2584
2017-01-16T08:27:31.528Z,2636
2017-01-16T08:28:54.032Z,2684
2017-01-16T08:30:16.080Z,2728
2017-01-16T08:31:38.593Z,2772
2017-01-16T08:33:00.659Z,2812
2017-01-16T08:34:23.540Z,2856
2017-01-16T08:35:45.608Z,2896
2017-01-16T08:37:07.664Z,2936
2017-01-16T08:38:30.105Z,2976
2017-01-16T08:39:52.791Z,3016
2017-01-16T08:41:15.662Z,3048
2017-01-16T08:42:37.723Z,3092
2017-01-16T08:44:00.170Z,3132
2017-01-16T08:45:22.615Z,3172
2017-01-16T08:46:44.441Z,3212
2017-01-16T08:48:06.472Z,3252
2017-01-16T08:49:28.590Z,3284
2017-01-16T08:50:51.056Z,3316
2017-01-16T08:52:13.193Z,3344
2017-01-16T08:53:35.250Z,3384
2017-01-16T08:54:57.674Z,3420
2017-01-16T08:56:20.129Z,3452
2017-01-16T08:57:42.277Z,3476
2017-01-16T08:59:04.700Z,3496
2017-01-16T09:00:27.168Z,3508
2017-01-16T09:01:49.352Z,3536
2017-01-16T09:03:11.805Z,3564
2017-01-16T09:04:33.457Z,3596
2017-01-16T09:05:55.919Z,3624
2017-01-16T09:07:18.431Z,3660
2017-01-16T09:08:40.480Z,3684
2017-01-16T09:10:02.966Z,3708
2017-01-16T09:11:25.570Z,3732
2017-01-16T09:12:47.332Z,3760
2017-01-16T09:14:09.421Z,3784
2017-01-16T09:15:31.052Z,3804
2017-01-16T09:16:52.708Z,3832
2017-01-16T09:18:15.562Z,3852
2017-01-16T09:19:37.281Z,3880
2017-01-16T09:20:59.374Z,3904
2017-01-16T09:22:21.024Z,3928
2017-01-16T09:23:43.052Z,3956
2017-01-16T09:25:05.531Z,3976
2017-01-16T09:26:28.410Z,3976
2017-01-16T09:27:50.503Z,4028
2017-01-16T09:29:12.543Z,4032
2017-01-16T09:30:35.481Z,4040
2017-01-16T09:31:57.501Z,4080
2017-01-16T09:33:20.356Z,4072
2017-01-16T09:34:42.422Z,4088
2017-01-16T09:36:04.863Z,4084
2017-01-16T09:37:27.326Z,4108
2017-01-16T09:38:49.439Z,4132
2017-01-16T09:40:11.881Z,4152
2017-01-16T09:41:33.934Z,4160
2017-01-16T09:42:56.385Z,4164
2017-01-16T09:44:18.449Z,4176
2017-01-16T09:45:41.072Z,4196
2017-01-16T09:47:03.588Z,4212
2017-01-16T09:48:26.448Z,4224
2017-01-16T09:49:48.942Z,4252
2017-01-16T09:51:10.593Z,4256
2017-01-16T09:52:33.432Z,4276
2017-01-16T09:53:56.274Z,4284
2017-01-16T09:55:18.313Z,4304
2017-01-16T09:56:40.440Z,4308
2017-01-16T09:58:02.475Z,4316
2017-01-16T09:59:25.433Z,4324
2017-01-16T10:00:47.555Z,4344
2017-01-16T10:02:09.195Z,4352
2017-01-16T10:03:31.617Z,4352
2017-01-16T10:04:54.054Z,4344
2017-01-16T10:06:16.582Z,4372
2017-01-16T10:07:38.625Z,4360
2017-01-16T10:09:01.250Z,4372
2017-01-16T10:10:23.131Z,4364
2017-01-16T10:11:45.581Z,4376
2017-01-16T10:13:08.024Z,4404
2017-01-16T10:14:31.148Z,4416
2017-01-16T10:15:52.900Z,4416
2017-01-16T10:17:14.545Z,4412
2017-01-16T10:18:37.010Z,4416
2017-01-16T10:19:59.114Z,4448
2017-01-16T10:21:21.151Z,4436
2017-01-16T10:22:42.420Z,4444
2017-01-16T10:24:03.679Z,4464
2017-01-16T10:25:24.924Z,4468
2017-01-16T10:26:46.235Z,4480
2017-01-16T10:28:09.063Z,4484
2017-01-16T10:29:31.555Z,4488
2017-01-16T10:30:53.725Z,4480
2017-01-16T10:32:16.183Z,4500
2017-01-16T10:33:38.697Z,4492
2017-01-16T10:34:59.535Z,4496
2017-01-16T10:36:21.575Z,4504
2017-01-16T10:37:44.021Z,4524
2017-01-16T10:39:06.465Z,4516
2017-01-16T10:40:28.177Z,4528
2017-01-16T10:41:50.028Z,4572
2017-01-16T10:43:12.876Z,4564
2017-01-16T10:44:35.077Z,4600
2017-01-16T10:45:57.538Z,4608
2017-01-16T10:47:19.994Z,4624
2017-01-16T10:48:42.030Z,4640
2017-01-16T10:50:03.662Z,4644
2017-01-16T10:51:25.327Z,4644
2017-01-16T10:52:47.786Z,4652
2017-01-16T10:54:10.337Z,4652
2017-01-16T10:55:32.382Z,4632
2017-01-16T10:56:54.893Z,4604
2017-01-16T10:58:16.958Z,4628
2017-01-16T10:59:38.760Z,4640
2017-01-16T11:01:01.311Z,4608
2017-01-16T11:02:24.255Z,4620
2017-01-16T11:04:19.007Z,4612
2017-01-16T11:05:41.907Z,4600
2017-01-16T11:07:03.969Z,4608
2017-01-16T11:08:26.812Z,4596
2017-01-16T11:09:48.915Z,4584
2017-01-16T11:11:11.369Z,4580
2017-01-16T11:12:34.218Z,4584
2017-01-16T11:13:57.127Z,4564
2017-01-16T11:15:19.568Z,4560
2017-01-16T11:16:42.524Z,4560
2017-01-16T11:18:04.969Z,4548
2017-01-16T11:19:26.219Z,4528
2017-01-16T11:20:48.288Z,4528
2017-01-16T11:22:10.326Z,4524
2017-01-16T11:23:31.960Z,4516
2017-01-16T11:24:54.060Z,4516
2017-01-16T11:26:16.902Z,4516
2017-01-16T11:27:39.337Z,4520
2017-01-16T11:29:01.862Z,4520
2017-01-16T11:30:23.901Z,4536
2017-01-16T11:31:46.337Z,4520
2017-01-16T11:33:09.184Z,4516
2017-01-16T11:34:32.120Z,4528
2017-01-16T11:35:55.017Z,4528
2017-01-16T11:37:17.306Z,4536
2017-01-16T11:38:40.159Z,4536
2017-01-16T11:40:02.210Z,4552
2017-01-16T11:41:24.854Z,4540
2017-01-16T11:42:47.353Z,4544
2017-01-16T11:44:09.799Z,4564
2017-01-16T11:45:32.313Z,4560
2017-01-16T11:46:55.127Z,4564
2017-01-16T11:48:17.199Z,4560
2017-01-16T11:49:39.311Z,4556
2017-01-16T11:51:02.155Z,4572
2017-01-16T11:52:23.434Z,4572
2017-01-16T11:53:45.891Z,4532
2017-01-16T11:55:07.555Z,4544
2017-01-16T11:56:29.615Z,4536
2017-01-16T11:57:52.457Z,4532
2017-01-16T11:59:15.483Z,4524
2017-01-16T12:00:37.142Z,4520
2017-01-16T12:01:57.990Z,4508
2017-01-16T12:03:20.112Z,4504
2017-01-16T12:04:41.763Z,4500
2017-01-16T12:06:03.974Z,4496
2017-01-16T12:07:25.625Z,4476
2017-01-16T12:08:47.378Z,4464
2017-01-16T12:10:09.428Z,4448
2017-01-16T12:11:30.806Z,4456
2017-01-16T12:12:52.519Z,4456
2017-01-16T12:14:15.023Z,4436
2017-01-16T12:15:37.062Z,4428
2017-01-16T12:16:59.131Z,4436
2017-01-16T12:18:20.839Z,4428
2017-01-16T12:19:42.975Z,4428
2017-01-16T12:21:05.425Z,4424
2017-01-16T12:22:27.887Z,4428
2017-01-16T12:23:50.328Z,4424
2017-01-16T12:25:11.984Z,4420
2017-01-16T12:26:33.695Z,4412
2017-01-16T12:27:54.959Z,4412
2017-01-16T12:29:17.500Z,4412
2017-01-16T12:30:40.355Z,4408
2017-01-16T12:32:02.523Z,4408
2017-01-16T12:33:24.179Z,4412
2017-01-16T12:34:45.837Z,4400
2017-01-16T12:36:08.002Z,4392
2017-01-16T12:37:29.659Z,4388
2017-01-16T12:38:51.816Z,4384
2017-01-16T12:40:13.923Z,4376
2017-01-16T12:41:36.498Z,4372
2017-01-16T12:42:59.330Z,4364
2017-01-16T12:44:21.361Z,4352
2017-01-16T12:45:43.916Z,4340
2017-01-16T12:47:06.352Z,4328
2017-01-16T12:48:28.417Z,4324
2017-01-16T12:49:50.075Z,4320
2017-01-16T12:51:11.738Z,4312
2017-01-16T12:52:34.206Z,4296
2017-01-16T12:53:56.763Z,4284
2017-01-16T12:55:19.837Z,4272
2017-01-16T12:56:42.691Z,4264
2017-01-16T12:58:05.353Z,4248
2017-01-16T12:59:27.998Z,4232
2017-01-16T13:00:50.833Z,4216
2017-01-16T13:02:12.949Z,4212
2017-01-16T13:03:35.018Z,4208
2017-01-16T13:04:56.724Z,4208
2017-01-16T13:06:19.575Z,4196
2017-01-16T13:07:41.618Z,4180
2017-01-16T13:09:03.670Z,4168
2017-01-16T13:10:26.228Z,4156
2017-01-16T13:11:48.686Z,4132
2017-01-16T13:13:10.355Z,4136
2017-01-16T13:14:32.412Z,4120
2017-01-16T13:15:55.251Z,4104
2017-01-16T13:17:17.708Z,4096
2017-01-16T13:18:39.351Z,4084
2017-01-16T13:20:01.815Z,4068
2017-01-16T13:21:23.871Z,4052
2017-01-16T13:22:46.329Z,4032
2017-01-16T13:24:08.532Z,4024
2017-01-16T13:25:30.591Z,4004
2017-01-16T13:26:53.200Z,3984
2017-01-16T13:28:15.761Z,3976
2017-01-16T13:29:37.447Z,3960
2017-01-16T13:30:59.523Z,3940
2017-01-16T13:32:22.420Z,3920
2017-01-16T13:33:44.878Z,3904
2017-01-16T13:35:06.563Z,3872
2017-01-16T13:36:29.081Z,3852
2017-01-16T13:37:51.991Z,3820
2017-01-16T13:39:13.842Z,3800
2017-01-16T13:40:36.320Z,3776
2017-01-16T13:41:58.804Z,3756
2017-01-16T13:43:21.263Z,3736
2017-01-16T13:44:44.204Z,3712
2017-01-16T13:46:06.247Z,3696
2017-01-16T13:47:27.905Z,3676
2017-01-16T13:48:50.355Z,3672
2017-01-16T13:50:12.403Z,3680
2017-01-16T13:51:34.454Z,3752
2017-01-16T13:52:56.182Z,3752
2017-01-16T13:54:19.025Z,3720
2017-01-16T13:55:40.671Z,3616
2017-01-16T13:57:02.465Z,3548
2017-01-16T13:58:24.523Z,3516
2017-01-16T13:59:46.573Z,3500
2017-01-16T14:01:08.208Z,3448
2017-01-16T14:02:30.953Z,3432
2017-01-16T14:03:53.404Z,3404
2017-01-16T14:05:15.979Z,3376
2017-01-16T14:06:38.026Z,3348
2017-01-16T14:08:00.886Z,3324
2017-01-16T14:09:22.943Z,3300
2017-01-16T14:10:45.421Z,3276
2017-01-16T14:12:07.477Z,3252
2017-01-16T14:13:30.412Z,3228
2017-01-16T14:14:53.264Z,3200
2017-01-16T14:16:15.443Z,3172
2017-01-16T14:17:37.129Z,3140
2017-01-16T14:19:00.192Z,3108
2017-01-16T14:20:22.651Z,3072
2017-01-16T14:21:45.095Z,3040
2017-01-16T14:23:07.565Z,3008
2017-01-16T14:24:29.825Z,2980
2017-01-16T14:25:51.880Z,2948
2017-01-16T14:27:14.326Z,2920
2017-01-16T14:28:36.858Z,2884
2017-01-16T14:29:58.971Z,2844
2017-01-16T14:31:22.049Z,2812
2017-01-16T14:32:44.958Z,2776
2017-01-16T14:34:07.832Z,2740
2017-01-16T14:35:29.512Z,2716
2017-01-16T14:36:51.678Z,2664
2017-01-16T14:38:13.705Z,2620
2017-01-16T14:39:35.447Z,2580
2017-01-16T14:40:58.308Z,2540
2017-01-16T14:42:20.899Z,2496
2017-01-16T14:43:43.795Z,2456
2017-01-16T14:45:06.054Z,2412
2017-01-16T14:46:28.488Z,2364
2017-01-16T14:47:49.987Z,2320
2017-01-16T14:49:12.036Z,2276
2017-01-16T14:50:34.489Z,2232
2017-01-16T14:51:56.565Z,2188
2017-01-16T14:53:18.230Z,2140
2017-01-16T14:54:40.679Z,2092
2017-01-16T14:56:03.269Z,2040
2017-01-16T14:57:25.390Z,1992
2017-01-16T14:58:47.450Z,1940
2017-01-16T15:00:09.910Z,1888
2017-01-16T15:01:31.258Z,1840
2017-01-16T15:02:54.115Z,1780
2017-01-16T15:04:16.230Z,1728
2017-01-16T15:05:38.678Z,1672
2017-01-16T15:07:01.666Z,1620
2017-01-16T15:08:24.518Z,1564
2017-01-16T15:09:46.977Z,1508
2017-01-16T15:11:09.644Z,1452
2017-01-16T15:12:32.521Z,1392
2017-01-16T15:13:54.580Z,1336
2017-01-16T15:15:17.028Z,1276
2017-01-16T15:16:38.772Z,1220
2017-01-16T15:18:01.694Z,1164
2017-01-16T15:19:24.140Z,1104
2017-01-16T15:20:46.988Z,1048
2017-01-16T15:22:09.084Z,988
2017-01-16T15:23:31.541Z,932
2017-01-16T15:24:53.182Z,876
2017-01-16T15:26:15.620Z,820
2017-01-16T15:27:37.474Z,764
2017-01-16T15:28:59.928Z,716
2017-01-16T15:30:21.634Z,660
2017-01-16T15:31:43.721Z,612
2017-01-16T15:33:06.570Z,564
2017-01-16T15:34:29.016Z,516
2017-01-16T15:35:51.160Z,468
2017-01-16T15:37:13.200Z,428
2017-01-16T15:38:35.632Z,384
2017-01-16T15:39:58.072Z,348
2017-01-16T15:41:20.542Z,308
2017-01-16T15:42:43.539Z,272
2017-01-16T15:44:06.366Z,240
2017-01-16T15:45:28.537Z,212
2017-01-16T15:46:51.009Z,184
2017-01-16T15:48:13.460Z,160
2017-01-16T15:49:35.527Z,140
2017-01-16T15:50:57.998Z,120
2017-01-16T15:52:20.054Z,100
2017-01-16T15:53:42.656Z,84
2017-01-16T15:55:04.875Z,72
2017-01-16T15:56:26.986Z,60
2017-01-16T15:57:49.914Z,48
2017-01-16T15:59:11.968Z,40
2017-01-16T16:00:34.481Z,36
2017-01-16T16:01:56.571Z,28
2017-01-16T16:03:18.242Z,20
2017-01-16T16:04:40.342Z,16
2017-01-16T16:06:02.542Z,16
2017-01-16T16:07:25.000Z,12
2017-01-16T16:08:47.169Z,8
2017-01-16T16:10:09.651Z,8
2017-01-16T16:11:32.810Z,8
2017-01-16T16:12:54.469Z,4
2017-01-16T16:14:16.122Z,4
2017-01-16T16:15:38.978Z,4
2017-01-16T16:17:01.909Z,4
2017-01-16T16:18:23.999Z,4
2017-01-16T16:19:46.114Z,0
2017-01-16T16:21:08.166Z,0
2017-01-16T16:22:29.803Z,0
2017-01-16T16:23:52.244Z,0
2017-01-16T16:25:15.058Z,0
2017-01-16T16:26:37.121Z,0
2017-01-16T16:27:59.608Z,0
2017-01-16T16:29:21.780Z,0
2017-01-16T16:30:44.531Z,0
2017-01-16T16:32:06.980Z,0
2017-01-16T16:33:29.032Z,0
2017-01-16T16:34:51.508Z,0
2017-01-16T16:36:14.461Z,0
2017-01-16T16:37:36.937Z,0
2017-01-16T16:38:58.577Z,0
2017-01-16T16:40:20.650Z,0
2017-01-16T16:41:43.510Z,0
2017-01-16T16:43:06.532Z,0
2017-01-16T16:44:28.966Z,0
2017-01-16T16:45:51.689Z,0
2017-01-16T16:47:13.344Z,0
2017-01-16T16:48:35.142Z,0
2017-01-16T16:49:57.999Z,0
2017-01-16T16:51:20.446Z,0
2017-01-16T16:52:42.942Z,0
2017-01-16T16:54:05.033Z,0
2017-01-16T16:55:27.902Z,0
2017-01-16T16:56:49.180Z,0
2017-01-16T16:58:10.860Z,0
2017-01-16T16:59:33.362Z,0
2017-01-16T17:00:56.207Z,0
2017-01-16T17:02:18.709Z,0
2017-01-16T17:03:40.768Z,0
2017-01-16T17:05:03.247Z,0
2017-01-16T17:06:25.815Z,0
2017-01-16T17:07:47.454Z,0
2017-01-16T17:09:09.920Z,0
2017-01-16T17:10:32.380Z,0
2017-01-16T17:11:54.829Z,0
2017-01-16T17:13:17.301Z,0
2017-01-16T17:14:40.525Z,0
2017-01-16T17:16:02.564Z,0
2017-01-16T17:17:24.627Z,0
2017-01-16T17:18:47.519Z,0
2017-01-16T17:20:09.192Z,0
2017-01-16T17:21:31.644Z,0
2017-01-16T17:22:54.095Z,0
2017-01-16T17:24:16.168Z,0
2017-01-16T17:25:38.251Z,0
2017-01-16T17:26:59.920Z,0
2017-01-16T17:28:21.620Z,0
2017-01-16T17:29:44.080Z,0
2017-01-16T17:31:06.259Z,0
2017-01-16T17:32:29.123Z,0
2017-01-16T17:33:51.598Z,0
2017-01-16T17:35:13.628Z,0
2017-01-16T17:36:36.536Z,0
2017-01-16T17:37:59.436Z,0
2017-01-16T17:39:22.288Z,0
2017-01-16T17:40:45.283Z,0
2017-01-16T17:42:07.730Z,0
2017-01-16T17:43:29.529Z,0
2017-01-16T17:44:52.044Z,0
2017-01-16T17:46:13.700Z,0
2017-01-16T17:47:36.247Z,0
2017-01-16T17:48:58.458Z,0
2017-01-16T17:50:20.527Z,0
2017-01-16T17:51:43.256Z,0
2017-01-16T17:53:06.139Z,0
2017-01-16T17:54:28.297Z,0
2017-01-16T17:55:50.774Z,0
2017-01-16T17:57:13.638Z,0
2017-01-16T17:58:35.318Z,0
2017-01-16T17:59:57.393Z,0
2017-01-16T18:01:19.468Z,0
2017-01-16T18:02:41.928Z,0
2017-01-16T18:04:04.004Z,0
2017-01-16T18:05:26.061Z,0
2017-01-16T18:06:48.106Z,0
2017-01-16T18:08:42.877Z,0
2017-01-16T18:10:05.393Z,0
2017-01-16T18:11:27.455Z,0
2017-01-16T18:12:50.323Z,0
2017-01-16T18:14:12.797Z,0
2017-01-16T18:15:34.922Z,0
2017-01-16T18:16:57.006Z,0
2017-01-16T18:18:19.589Z,0
2017-01-16T18:19:42.467Z,0
2017-01-16T18:21:05.324Z,0
2017-01-16T18:22:27.796Z,0
2017-01-16T18:23:49.864Z,0
2017-01-16T18:25:12.551Z,0
2017-01-16T18:26:34.339Z,0
2017-01-16T18:27:56.408Z,0
2017-01-16T18:29:18.171Z,0
2017-01-16T18:30:40.288Z,0
2017-01-16T18:32:02.748Z,0
2017-01-16T18:33:25.616Z,0
2017-01-16T18:34:47.271Z,0
2017-01-16T18:36:09.321Z,0
2017-01-16T18:37:30.593Z,0
2017-01-16T18:38:53.074Z,0
2017-01-16T18:40:14.869Z,0
2017-01-16T18:41:36.938Z,0
2017-01-16T18:42:59.129Z,0
2017-01-16T18:44:22.020Z,0
2017-01-16T18:45:44.920Z,0
2017-01-16T18:47:07.852Z,0
2017-01-16T18:48:29.929Z,0
2017-01-16T18:49:52.450Z,0
2017-01-16T18:51:15.000Z,0
2017-01-16T18:52:38.073Z,0
2017-01-16T18:54:00.956Z,0
2017-01-16T18:55:23.522Z,0
2017-01-16T18:56:45.608Z,0
2017-01-16T18:58:07.794Z,0
2017-01-16T18:59:29.585Z,0
2017-01-16T19:00:51.703Z,0
2017-01-16T19:02:13.858Z,0
2017-01-16T19:03:35.951Z,0
2017-01-16T19:04:58.540Z,0
2017-01-16T19:06:20.619Z,0
2017-01-16T19:07:43.525Z,0
2017-01-16T19:09:06.055Z,0
2017-01-16T19:10:28.698Z,0
2017-01-16T19:11:51.569Z,0
2017-01-16T19:13:14.469Z,0
2017-01-16T19:14:36.671Z,0
2017-01-16T19:15:59.197Z,0
2017-01-16T19:17:20.875Z,0
2017-01-16T19:18:43.424Z,0
2017-01-16T19:20:05.496Z,0
2017-01-16T19:21:28.014Z,0
2017-01-16T19:22:50.188Z,0